createdAt,value
2023-02-02T00:00:56.556Z,21.50
2023-02-02T00:03:23.815Z,30.60
2023-02-02T00:05:51.225Z,18.77
2023-02-02T00:08:18.568Z,17.92
2023-02-02T00:10:45.892Z,27.50
2023-02-02T00:13:16.274Z,26.42
2023-02-02T00:15:43.563Z,14.38
2023-02-02T00:18:10.771Z,22.77
2023-02-02T00:20:38.055Z,24.80
2023-02-02T00:23:05.378Z,22.08
2023-02-02T00:25:32.668Z,17.65
2023-02-02T00:27:59.963Z,13.13
2023-02-02T00:30:27.289Z,21.98
2023-02-02T00:32:54.645Z,16.13
2023-02-02T00:35:22.153Z,30.92
2023-02-02T00:37:50.353Z,19.38
2023-02-02T00:40:17.644Z,18.85
2023-02-02T00:42:49.125Z,32.97
2023-02-02T00:45:16.426Z,15.63
2023-02-02T00:47:43.789Z,19.50
2023-02-02T00:50:11.084Z,16.30
2023-02-02T00:52:39.746Z,21.23
2023-02-02T00:55:07.531Z,19.98
2023-02-02T00:57:34.910Z,24.02
2023-02-02T01:00:02.611Z,18.88
2023-02-02T01:02:30.254Z,23.13
2023-02-02T01:04:57.589Z,15.65
2023-02-02T01:07:24.983Z,15.70
2023-02-02T01:09:52.343Z,12.52
2023-02-02T01:12:19.561Z,15.48
2023-02-02T01:14:46.834Z,23.45
2023-02-02T01:17:14.577Z,17.23
2023-02-02T01:19:42.071Z,19.80
2023-02-02T01:22:09.291Z,13.98
2023-02-02T01:24:36.547Z,25.70
2023-02-02T01:27:03.746Z,13.38
2023-02-02T01:29:31.656Z,10.85
2023-02-02T01:31:59.009Z,16.33
2023-02-02T01:34:26.475Z,17.50
2023-02-02T01:36:53.759Z,14.18
2023-02-02T01:39:20.974Z,17.13
2023-02-02T01:41:48.223Z,19.20
2023-02-02T01:44:15.516Z,14.52
2023-02-02T01:46:42.757Z,14.10
2023-02-02T01:49:10.136Z,17.73
2023-02-02T01:51:37.584Z,10.98
2023-02-02T01:54:05.090Z,16.73
2023-02-02T01:56:32.361Z,16.23
2023-02-02T01:58:59.628Z,16.20
2023-02-02T02:01:26.983Z,21.30
2023-02-02T02:03:54.344Z,17.63
2023-02-02T02:06:21.829Z,15.45
2023-02-02T02:08:49.210Z,18.30
2023-02-02T02:11:16.540Z,14.07
2023-02-02T02:14:02.563Z,14.70
2023-02-02T02:16:29.995Z,20.45
2023-02-02T02:18:57.262Z,13.60
2023-02-02T02:21:50.964Z,18.23
2023-02-02T02:24:37.097Z,21.83
2023-02-02T02:27:04.390Z,12.38
2023-02-02T02:29:32.595Z,24.23
2023-02-02T02:32:00.407Z,25.13
2023-02-02T02:34:28.420Z,17.52
2023-02-02T02:36:55.676Z,17.00
2023-02-02T02:39:23.235Z,15.45
2023-02-02T02:41:50.533Z,19.83
2023-02-02T02:44:18.782Z,16.75
2023-02-02T02:46:46.049Z,18.38
2023-02-02T02:49:13.279Z,20.58
2023-02-02T02:51:40.633Z,30.60
2023-02-02T02:54:08.123Z,8.80
2023-02-02T02:56:35.565Z,28.25
2023-02-02T02:59:02.892Z,21.65
2023-02-02T03:01:30.374Z,22.80
2023-02-02T03:03:57.658Z,23.45
2023-02-02T03:06:24.895Z,19.48
2023-02-02T03:08:52.108Z,30.67
2023-02-02T03:11:19.345Z,19.77
2023-02-02T03:13:46.564Z,18.23
2023-02-02T03:16:13.818Z,28.75
2023-02-02T03:18:41.072Z,13.98
2023-02-02T03:21:11.269Z,22.08
2023-02-02T03:23:38.935Z,13.70
2023-02-02T03:26:06.183Z,20.30
2023-02-02T03:28:33.403Z,25.63
2023-02-02T03:31:01.173Z,12.85
2023-02-02T03:33:28.453Z,17.67
2023-02-02T03:35:55.666Z,17.02
2023-02-02T03:38:22.909Z,16.85
2023-02-02T03:40:50.093Z,14.88
2023-02-02T03:43:17.321Z,17.55
2023-02-02T03:45:44.501Z,12.07
2023-02-02T03:48:11.761Z,17.67
2023-02-02T03:50:38.990Z,25.38
2023-02-02T03:53:06.283Z,20.52
2023-02-02T03:55:35.133Z,21.25
2023-02-02T03:58:02.347Z,16.15
2023-02-02T04:00:29.530Z,10.38
2023-02-02T04:02:56.874Z,15.57
2023-02-02T04:05:24.335Z,15.38
2023-02-02T04:07:51.830Z,14.50
2023-02-02T04:10:19.011Z,23.88
2023-02-02T04:12:46.445Z,16.73
2023-02-02T04:15:13.669Z,15.90
2023-02-02T04:17:40.990Z,19.30
2023-02-02T04:20:08.323Z,17.65
2023-02-02T04:22:35.589Z,13.00
2023-02-02T04:25:02.793Z,11.23
2023-02-02T04:27:32.612Z,13.43
2023-02-02T04:29:59.867Z,26.83
2023-02-02T04:32:27.166Z,15.35
2023-02-02T04:34:54.386Z,8.60
2023-02-02T04:37:21.618Z,20.88
2023-02-02T04:39:48.904Z,11.05
2023-02-02T04:42:16.151Z,21.30
2023-02-02T04:44:45.791Z,13.10
2023-02-02T04:47:13.192Z,14.10
2023-02-02T04:49:40.386Z,12.18
2023-02-02T04:52:07.703Z,13.45
2023-02-02T04:54:35.024Z,12.20
2023-02-02T04:57:02.229Z,19.27
2023-02-02T04:59:30.173Z,12.43
2023-02-02T05:01:57.361Z,43.33
2023-02-02T05:04:24.668Z,19.98
2023-02-02T05:06:51.890Z,16.33
2023-02-02T05:09:19.167Z,18.67
2023-02-02T05:11:46.361Z,21.80
2023-02-02T05:14:14.374Z,15.70
2023-02-02T05:16:41.760Z,8.95
2023-02-02T05:19:09.325Z,16.15
2023-02-02T05:21:36.507Z,23.00
2023-02-02T05:24:03.892Z,10.95
2023-02-02T05:26:31.137Z,19.88
2023-02-02T05:28:58.436Z,10.13
2023-02-02T05:31:25.743Z,16.75
2023-02-02T05:33:53.080Z,16.05
2023-02-02T05:36:20.240Z,19.48
2023-02-02T05:38:47.522Z,11.80
2023-02-02T05:41:14.763Z,15.30
2023-02-02T05:43:42.012Z,14.43
2023-02-02T05:46:09.279Z,11.88
2023-02-02T05:48:36.573Z,18.17
2023-02-02T05:51:03.865Z,15.15
2023-02-02T05:53:31.348Z,9.00
2023-02-02T05:55:58.634Z,23.42
2023-02-02T05:58:25.988Z,15.57
2023-02-02T06:00:56.216Z,19.65
2023-02-02T06:03:23.971Z,12.77
2023-02-02T06:05:51.234Z,12.35
2023-02-02T06:08:18.511Z,16.88
2023-02-02T06:10:45.844Z,12.00
2023-02-02T06:13:13.161Z,21.13
2023-02-02T06:15:42.247Z,16.63
2023-02-02T06:18:09.539Z,16.15
2023-02-02T06:20:36.765Z,12.77
2023-02-02T06:23:03.990Z,25.30
2023-02-02T06:25:31.198Z,12.40
2023-02-02T06:27:58.645Z,12.48
2023-02-02T06:30:25.847Z,18.73
2023-02-02T06:32:53.123Z,8.88
2023-02-02T06:35:20.329Z,5.63
2023-02-02T06:37:55.235Z,13.25
2023-02-02T06:40:22.517Z,9.55
2023-02-02T06:42:49.764Z,25.35
2023-02-02T06:45:17.092Z,11.05
2023-02-02T06:47:44.312Z,12.50
2023-02-02T06:50:12.249Z,13.38
2023-02-02T06:52:39.507Z,18.33
2023-02-02T06:55:06.757Z,7.32
2023-02-02T06:57:34.017Z,8.88
2023-02-02T07:00:01.675Z,19.52
2023-02-02T07:02:28.944Z,9.52
2023-02-02T07:04:56.226Z,13.02
2023-02-02T07:07:23.644Z,11.75
2023-02-02T07:09:58.101Z,10.00
2023-02-02T07:12:26.957Z,13.13
2023-02-02T07:14:54.163Z,15.10
2023-02-02T07:17:21.473Z,13.52
2023-02-02T07:19:48.720Z,14.13
2023-02-02T07:22:16.151Z,14.23
2023-02-02T07:24:43.374Z,9.82
2023-02-02T07:27:10.648Z,9.75
2023-02-02T07:29:38.231Z,13.18
2023-02-02T07:32:05.448Z,12.52
2023-02-02T07:34:32.681Z,17.20
2023-02-02T07:36:59.971Z,12.43
2023-02-02T07:39:27.216Z,12.95
2023-02-02T07:41:54.481Z,10.48
2023-02-02T07:44:31.748Z,12.73
2023-02-02T07:46:59.076Z,17.08
2023-02-02T07:49:26.239Z,9.70
2023-02-02T07:51:53.487Z,14.05
2023-02-02T07:54:20.740Z,13.82
2023-02-02T07:56:48.097Z,14.32
2023-02-02T07:59:15.359Z,16.60
2023-02-02T08:01:42.685Z,25.58
2023-02-02T08:04:09.923Z,20.58
2023-02-02T08:06:37.264Z,13.07
2023-02-02T08:09:04.450Z,10.35
2023-02-02T08:11:31.654Z,14.27
2023-02-02T08:13:58.852Z,13.40
2023-02-02T08:16:26.305Z,18.95
2023-02-02T08:18:53.561Z,13.82
2023-02-02T08:21:20.907Z,12.88
2023-02-02T08:23:48.150Z,10.93
2023-02-02T08:26:15.425Z,12.70
2023-02-02T08:28:42.712Z,11.07
2023-02-02T08:31:10.092Z,7.93
2023-02-02T08:33:38.571Z,16.85
2023-02-02T08:36:06.913Z,15.93
2023-02-02T08:38:34.161Z,15.55
2023-02-02T08:41:01.441Z,14.68
2023-02-02T08:43:28.628Z,7.05
2023-02-02T08:46:14.011Z,12.80
2023-02-02T08:48:41.674Z,8.88
2023-02-02T08:51:08.853Z,18.55
2023-02-02T08:53:36.072Z,12.20
2023-02-02T08:56:04.049Z,14.32
2023-02-02T08:58:31.404Z,14.77
2023-02-02T09:00:58.622Z,11.48
2023-02-02T09:03:26.021Z,14.13
2023-02-02T09:05:53.287Z,13.93
2023-02-02T09:08:20.533Z,6.00
2023-02-02T09:10:50.973Z,14.75
2023-02-02T09:13:18.453Z,5.53
2023-02-02T09:15:45.656Z,6.80
2023-02-02T09:18:12.944Z,9.02
2023-02-02T09:20:41.800Z,13.50
2023-02-02T09:23:09.406Z,7.97
2023-02-02T09:25:36.660Z,3.58
2023-02-02T09:28:03.940Z,11.25
2023-02-02T09:30:31.171Z,11.80
2023-02-02T09:32:58.472Z,8.70
2023-02-02T09:35:26.067Z,10.30
2023-02-02T09:37:53.600Z,9.60
2023-02-02T09:40:21.281Z,13.52
2023-02-02T09:42:48.596Z,5.65
2023-02-02T09:45:15.816Z,12.70
2023-02-02T09:47:43.047Z,7.55
2023-02-02T09:50:10.250Z,8.43
2023-02-02T09:52:37.602Z,12.65
2023-02-02T09:55:04.858Z,9.75
2023-02-02T09:57:32.150Z,7.28
2023-02-02T09:59:59.352Z,9.35
2023-02-02T10:02:26.756Z,10.38
2023-02-02T10:04:54.196Z,6.50
2023-02-02T10:07:21.656Z,5.95
2023-02-02T10:09:48.942Z,9.93
2023-02-02T10:12:16.274Z,3.60
2023-02-02T10:14:44.988Z,5.55
2023-02-02T10:17:12.963Z,6.75
2023-02-02T10:19:40.433Z,5.35
2023-02-02T10:22:07.831Z,6.78
2023-02-02T10:24:38.233Z,5.97
2023-02-02T10:27:07.243Z,10.07
2023-02-02T10:29:47.975Z,4.97
2023-02-02T10:32:17.192Z,5.97
2023-02-02T10:34:44.543Z,10.80
2023-02-02T10:37:11.774Z,5.90
2023-02-02T10:39:39.032Z,2.80
2023-02-02T10:42:06.407Z,5.47
2023-02-02T10:44:33.687Z,5.88
2023-02-02T10:47:00.986Z,4.10
2023-02-02T10:52:29.176Z,3.00
2023-02-02T10:54:58.548Z,5.53
2023-02-02T10:57:26.444Z,3.90
2023-02-02T10:59:54.686Z,6.07
2023-02-02T11:02:22.025Z,5.65
2023-02-02T11:05:12.648Z,6.03
2023-02-02T11:07:39.972Z,2.72
2023-02-02T11:10:08.244Z,4.18
2023-02-02T11:12:35.573Z,9.38
2023-02-02T11:15:05.216Z,3.20
2023-02-02T11:17:33.251Z,6.70
2023-02-02T11:20:00.556Z,3.33
2023-02-02T11:22:28.894Z,5.65
2023-02-02T11:24:56.090Z,3.85
2023-02-02T11:27:23.438Z,4.35
2023-02-02T11:29:50.886Z,11.02
2023-02-02T11:32:18.193Z,5.10
2023-02-02T11:34:45.537Z,6.68
2023-02-02T11:37:12.961Z,5.70
2023-02-02T11:39:40.253Z,8.05
2023-02-02T11:42:07.628Z,3.35
2023-02-02T11:44:35.915Z,8.07
2023-02-02T11:47:03.200Z,5.82
2023-02-02T11:49:30.516Z,7.10
2023-02-02T11:51:57.780Z,6.72
2023-02-02T11:54:25.208Z,11.10
2023-02-02T11:56:52.400Z,9.25
2023-02-02T11:59:19.634Z,7.70
2023-02-02T12:01:46.927Z,6.28
2023-02-02T12:04:14.238Z,4.20
2023-02-02T12:06:41.455Z,7.18
2023-02-02T12:09:08.742Z,8.88
2023-02-02T12:11:35.979Z,7.88
2023-02-02T12:14:03.286Z,7.57
2023-02-02T12:16:30.603Z,6.97
2023-02-02T12:18:57.910Z,7.78
2023-02-02T12:21:25.129Z,3.65
2023-02-02T12:23:52.491Z,9.25
2023-02-02T12:26:20.498Z,6.90
2023-02-02T12:28:47.901Z,7.60
2023-02-02T12:31:15.265Z,8.80
2023-02-02T12:33:42.711Z,7.28
2023-02-02T12:36:09.878Z,9.45
2023-02-02T12:38:37.147Z,9.52
2023-02-02T12:41:04.382Z,7.57
2023-02-02T12:43:31.651Z,6.07
2023-02-02T12:45:58.863Z,5.28
2023-02-02T12:48:26.233Z,14.02
2023-02-02T12:50:53.532Z,10.05
2023-02-02T12:53:20.901Z,9.02
2023-02-02T12:55:48.186Z,7.47
2023-02-02T12:58:15.552Z,4.95
2023-02-02T13:00:42.919Z,6.22
2023-02-02T13:03:10.166Z,8.45
2023-02-02T13:05:37.355Z,5.97
2023-02-02T13:08:04.829Z,6.50
2023-02-02T13:10:32.024Z,5.05
2023-02-02T13:12:59.292Z,3.65
2023-02-02T13:15:26.458Z,9.05
2023-02-02T13:17:53.831Z,6.65
2023-02-02T13:20:21.597Z,7.97
2023-02-02T13:22:49.090Z,5.57
2023-02-02T13:25:16.431Z,5.13
2023-02-02T13:27:43.697Z,5.22
2023-02-02T13:30:11.300Z,7.70
2023-02-02T13:32:38.650Z,4.07
2023-02-02T13:35:05.842Z,3.60
2023-02-02T13:37:37.003Z,7.72
2023-02-02T13:40:04.280Z,5.80
2023-02-02T13:42:31.548Z,6.07
2023-02-02T13:44:58.867Z,5.40
2023-02-02T13:47:26.221Z,2.53
2023-02-02T13:49:53.561Z,7.13
2023-02-02T13:52:20.741Z,1.25
2023-02-02T13:54:50.548Z,6.32
2023-02-02T13:57:17.849Z,10.77
2023-02-02T13:59:45.783Z,3.40
2023-02-02T14:02:13.041Z,6.40
2023-02-02T14:04:40.212Z,4.07
2023-02-02T14:07:07.463Z,4.10
2023-02-02T14:09:34.758Z,3.13
2023-02-02T14:12:02.034Z,4.60
2023-02-02T14:14:32.349Z,8.38
2023-02-02T14:16:59.787Z,11.68
2023-02-02T14:19:27.380Z,6.43
2023-02-02T14:21:54.681Z,4.65
2023-02-02T14:24:21.939Z,4.40
2023-02-02T14:26:49.343Z,6.78
2023-02-02T14:29:16.644Z,2.50
2023-02-02T14:31:44.005Z,4.40
2023-02-02T14:34:12.708Z,2.67
2023-02-02T14:36:40.170Z,7.43
2023-02-02T14:39:07.339Z,7.45
2023-02-02T14:41:53.432Z,5.97
2023-02-02T14:44:20.666Z,3.75
2023-02-02T14:46:49.178Z,4.93
2023-02-02T14:49:16.488Z,4.00
2023-02-02T14:51:46.214Z,3.90
2023-02-02T14:54:13.466Z,6.72
2023-02-02T14:56:41.059Z,8.90
2023-02-02T14:59:08.324Z,5.18
2023-02-02T15:01:35.596Z,2.45
2023-02-02T15:04:03.001Z,6.60
2023-02-02T15:06:30.225Z,6.30
2023-02-02T15:08:57.486Z,3.42
2023-02-02T15:11:27.981Z,1.50
2023-02-02T15:13:55.274Z,2.53
2023-02-02T15:16:22.934Z,3.63
2023-02-02T15:18:50.146Z,4.70
2023-02-02T15:21:17.441Z,2.78
2023-02-02T15:23:44.673Z,4.03
2023-02-02T15:26:11.921Z,1.73
2023-02-02T15:28:39.395Z,3.05
2023-02-02T15:31:06.664Z,1.25
2023-02-02T15:33:36.703Z,5.10
2023-02-02T15:36:03.979Z,2.25
2023-02-02T15:38:32.683Z,3.78
2023-02-02T15:40:59.898Z,1.58
2023-02-02T15:43:27.099Z,1.50
2023-02-02T15:45:54.453Z,2.53
2023-02-02T15:48:21.749Z,6.45
2023-02-02T15:50:51.228Z,3.90
2023-02-02T15:53:18.559Z,1.67
2023-02-02T15:55:45.799Z,4.07
2023-02-02T15:58:13.051Z,6.35
2023-02-02T16:00:40.412Z,6.20
2023-02-02T16:03:07.800Z,5.70
2023-02-02T16:05:35.030Z,4.40
2023-02-02T16:08:06.368Z,3.97
2023-02-02T16:10:33.842Z,1.25
2023-02-02T16:13:01.123Z,4.35
2023-02-02T16:15:28.463Z,1.65
2023-02-02T16:17:55.639Z,2.58
2023-02-02T16:20:22.907Z,3.30
2023-02-02T16:22:51.225Z,5.22
2023-02-02T16:25:18.573Z,5.90
2023-02-02T16:27:46.326Z,4.35
2023-02-02T16:30:13.837Z,4.35
2023-02-02T16:32:41.976Z,3.78
2023-02-02T16:35:09.825Z,7.63
2023-02-02T16:37:37.171Z,4.22
2023-02-02T16:40:04.362Z,5.85
2023-02-02T16:42:31.803Z,4.00
2023-02-02T16:44:59.456Z,4.75
2023-02-02T16:47:26.873Z,11.85
2023-02-02T16:49:54.085Z,7.65
2023-02-02T16:52:21.426Z,8.27
2023-02-02T16:54:48.635Z,9.20
2023-02-02T16:57:15.950Z,4.32
2023-02-02T16:59:43.178Z,2.80
2023-02-02T17:02:10.455Z,4.15
2023-02-02T17:04:37.700Z,3.40
2023-02-02T17:07:05.458Z,5.55
2023-02-02T17:09:35.326Z,2.88
2023-02-02T17:12:03.291Z,8.60
2023-02-02T17:14:30.562Z,2.08
2023-02-02T17:16:57.909Z,2.13
2023-02-02T17:19:25.190Z,2.30
2023-02-02T17:21:52.604Z,3.75
2023-02-02T17:24:19.813Z,1.60
2023-02-02T17:26:50.652Z,5.65
2023-02-02T17:29:17.993Z,2.42
2023-02-02T17:31:45.647Z,7.22
2023-02-02T17:34:14.767Z,1.25
2023-02-02T17:36:42.027Z,2.35
2023-02-02T17:39:11.591Z,6.55
2023-02-02T17:41:39.251Z,6.55
2023-02-02T17:44:07.032Z,5.88
2023-02-02T17:46:35.142Z,2.25
2023-02-02T17:49:02.447Z,3.38
2023-02-02T17:51:30.891Z,6.32
2023-02-02T17:54:00.450Z,1.80
2023-02-02T17:56:27.842Z,4.72
2023-02-02T17:58:55.219Z,6.97
2023-02-02T18:01:22.695Z,8.88
2023-02-02T18:03:50.747Z,4.82
2023-02-02T18:06:17.991Z,3.25
2023-02-02T18:08:45.628Z,2.75
2023-02-02T18:11:12.826Z,3.97
2023-02-02T18:13:40.023Z,5.57
2023-02-02T18:16:07.559Z,4.13
2023-02-02T18:18:34.814Z,3.17
2023-02-02T18:21:02.850Z,4.25
2023-02-02T18:23:30.148Z,3.00
2023-02-02T18:25:57.399Z,4.57
2023-02-02T18:28:24.602Z,2.40
2023-02-02T18:30:51.963Z,3.17
2023-02-02T18:33:19.992Z,5.15
2023-02-02T18:35:47.644Z,3.47
2023-02-02T18:38:14.999Z,7.65
2023-02-02T18:40:42.235Z,3.40
2023-02-02T18:43:09.519Z,2.70
2023-02-02T18:45:36.866Z,1.83
2023-02-02T18:48:04.050Z,2.67
2023-02-02T18:50:31.323Z,1.90
2023-02-02T18:52:58.696Z,2.25
2023-02-02T18:55:26.393Z,4.60
2023-02-02T18:57:54.025Z,4.43
2023-02-02T19:00:22.325Z,3.25
2023-02-02T19:02:49.574Z,2.22
2023-02-02T19:05:35.745Z,3.22
2023-02-02T19:08:04.076Z,3.83
2023-02-02T19:10:31.359Z,3.83
2023-02-02T19:12:58.611Z,1.20
2023-02-02T19:15:26.901Z,4.82
2023-02-02T19:17:54.860Z,3.15
2023-02-02T19:20:22.208Z,2.70
2023-02-02T19:22:49.412Z,6.65
2023-02-02T19:25:16.586Z,0.88
2023-02-02T19:27:43.791Z,2.50
2023-02-02T19:30:11.082Z,2.67
2023-02-02T19:32:38.960Z,3.05
2023-02-02T19:35:06.469Z,2.92
2023-02-02T19:37:33.707Z,3.45
2023-02-02T19:40:01.156Z,6.38
2023-02-02T19:42:28.408Z,3.38
2023-02-02T19:44:55.687Z,6.95
2023-02-02T19:47:23.255Z,4.47
2023-02-02T19:49:50.604Z,3.53
2023-02-02T19:52:17.856Z,5.85
2023-02-02T19:54:47.673Z,3.80
2023-02-02T19:57:14.943Z,1.80
2023-02-02T19:59:42.207Z,2.58
2023-02-02T20:02:11.355Z,1.55
2023-02-02T20:04:38.776Z,3.15
2023-02-02T20:07:06.215Z,1.05
2023-02-02T20:09:33.421Z,3.45
2023-02-02T20:12:00.632Z,1.83
2023-02-02T20:14:32.179Z,4.05
2023-02-02T20:17:00.802Z,2.88
2023-02-02T20:19:28.943Z,5.32
2023-02-02T20:21:56.309Z,6.85
2023-02-02T20:24:23.685Z,1.10
2023-02-02T20:26:50.961Z,3.85
2023-02-02T20:29:18.382Z,3.53
2023-02-02T20:31:45.726Z,3.05
2023-02-02T20:34:13.022Z,8.23
2023-02-02T20:36:40.563Z,6.88
2023-02-02T20:39:07.860Z,3.78
2023-02-02T20:41:35.258Z,7.43
2023-02-02T20:44:03.389Z,4.65
2023-02-02T20:46:30.616Z,4.55
2023-02-02T20:48:57.833Z,4.50
2023-02-02T20:51:25.211Z,5.50
2023-02-02T20:53:55.587Z,2.85
2023-02-02T20:56:22.854Z,3.70
2023-02-02T20:58:50.679Z,6.18
2023-02-02T21:01:19.072Z,2.70
2023-02-02T21:03:46.265Z,4.70
2023-02-02T21:06:13.553Z,3.47
2023-02-02T21:08:40.790Z,3.70
2023-02-02T21:11:08.170Z,5.15
2023-02-02T21:13:35.416Z,2.65
2023-02-02T21:16:02.689Z,2.40
2023-02-02T21:18:29.870Z,4.78
2023-02-02T21:20:57.206Z,3.55
2023-02-02T21:23:24.449Z,5.35
2023-02-02T21:25:51.689Z,4.72
2023-02-02T21:28:18.871Z,2.80
2023-02-02T21:30:46.189Z,4.00
2023-02-02T21:33:13.623Z,4.07
2023-02-02T21:35:40.791Z,3.20
2023-02-02T21:38:07.977Z,4.28
2023-02-02T21:40:35.530Z,3.22
2023-02-02T21:43:02.792Z,4.05
2023-02-02T21:45:30.168Z,6.68
2023-02-02T21:47:57.430Z,5.03
2023-02-02T21:50:25.016Z,10.27
2023-02-02T21:52:52.529Z,8.43
2023-02-02T21:55:19.740Z,3.78
2023-02-02T21:57:46.915Z,6.57
2023-02-02T22:00:16.727Z,3.15
2023-02-02T22:02:45.166Z,8.95
2023-02-02T22:05:12.467Z,4.97
2023-02-02T22:07:39.814Z,8.38
2023-02-02T22:10:06.989Z,5.70
2023-02-02T22:12:34.331Z,6.03
2023-02-02T22:15:01.732Z,4.75
2023-02-02T22:17:28.967Z,7.57
2023-02-02T22:19:56.182Z,5.65
2023-02-02T22:22:23.458Z,10.25
2023-02-02T22:24:50.815Z,1.77
2023-02-02T22:27:18.141Z,3.33
2023-02-02T22:29:45.563Z,1.77
2023-02-02T22:32:12.827Z,4.10
2023-02-02T22:34:40.034Z,6.25
2023-02-02T22:37:07.322Z,3.88
2023-02-02T22:39:38.785Z,3.47
2023-02-02T22:42:06.326Z,1.63
2023-02-02T22:44:33.580Z,5.15
2023-02-02T22:47:00.792Z,6.82
2023-02-02T22:49:28.072Z,3.65
2023-02-02T22:51:55.241Z,5.43
2023-02-02T22:54:22.488Z,7.28
2023-02-02T22:56:49.671Z,3.42
2023-02-02T22:59:16.937Z,4.65
2023-02-02T23:01:44.132Z,9.18
2023-02-02T23:04:11.647Z,9.20
2023-02-02T23:06:38.892Z,6.93
2023-02-02T23:09:06.103Z,5.30
2023-02-02T23:11:33.380Z,1.75
2023-02-02T23:14:00.663Z,6.85
2023-02-02T23:16:27.943Z,9.57
2023-02-02T23:18:55.133Z,2.25
2023-02-02T23:21:22.570Z,9.07
2023-02-02T23:23:49.807Z,5.82
2023-02-02T23:26:17.249Z,3.80
2023-02-02T23:28:44.547Z,7.88
2023-02-02T23:31:12.015Z,3.28
2023-02-02T23:33:39.353Z,5.43
2023-02-02T23:36:06.651Z,5.88
2023-02-02T23:38:33.893Z,8.85
2023-02-02T23:41:01.119Z,9.40
2023-02-02T23:43:28.708Z,6.65
2023-02-02T23:45:56.042Z,5.90
2023-02-02T23:48:23.653Z,4.30
2023-02-02T23:50:50.920Z,2.95
2023-02-02T23:53:18.179Z,8.23
2023-02-02T23:55:48.446Z,3.63
2023-02-02T23:58:15.687Z,4.18
